Time;durP1;ratioP1;P1;durP2;ratioP2;P2;SDS_P1;SDS_P2;PMS_P1;PMS_P2;Temp;Humidity;BMP_temperature;BMP_pressure;BME280_temperature;BME280_humidity;BME280_pressure;Samples;Min_cycle;Max_cycle;Signal;HPM_P1;HPM_P2
2021/04/20 00:00:51;;;;;;;10.93;7.57;;;5.70;99.90;;;;;;5035255;28;20397;-65
2021/04/20 00:03:17;;;;;;;10.23;6.50;;;5.80;99.90;;;;;;5034667;28;20422;-65
2021/04/20 00:05:42;;;;;;;11.88;8.10;;;5.80;99.90;;;;;;5033943;28;20026;-65
2021/04/20 00:08:09;;;;;;;10.38;6.20;;;5.80;99.90;;;;;;5033577;28;20494;-65
2021/04/20 00:10:35;;;;;;;9.20;6.07;;;5.90;99.90;;;;;;5035062;28;20036;-65
2021/04/20 00:13:02;;;;;;;14.05;6.97;;;5.90;99.90;;;;;;5034806;28;20539;-65
2021/04/20 00:15:31;;;;;;;10.30;6.78;;;5.80;99.90;;;;;;5034638;28;20116;-66
2021/04/20 00:18:02;;;;;;;11.63;6.70;;;5.80;99.90;;;;;;5034884;28;20080;-65
2021/04/20 00:20:27;;;;;;;15.38;9.18;;;5.80;99.90;;;;;;5034583;28;20041;-65
2021/04/20 00:22:54;;;;;;;13.85;8.23;;;5.80;99.90;;;;;;5034777;28;20032;-65
2021/04/20 00:25:20;;;;;;;9.65;6.55;;;5.90;99.90;;;;;;5033416;28;20042;-65
2021/04/20 00:27:46;;;;;;;14.55;7.90;;;5.80;99.90;;;;;;5034598;28;20030;-65
2021/04/20 00:30:13;;;;;;;10.90;7.10;;;5.80;99.90;;;;;;5034536;28;20051;-65
2021/04/20 00:32:40;;;;;;;15.35;9.10;;;5.80;99.90;;;;;;5034638;28;20041;-65
2021/04/20 00:35:08;;;;;;;14.25;8.52;;;5.80;99.90;;;;;;5034537;28;20036;-65
2021/04/20 00:37:35;;;;;;;14.57;8.80;;;5.70;99.90;;;;;;5032977;28;20456;-65
2021/04/20 00:40:01;;;;;;;11.82;7.82;;;5.70;99.90;;;;;;5016741;28;20030;-65
2021/04/20 00:42:27;;;;;;;17.85;10.90;;;5.80;99.90;;;;;;5034469;28;20037;-65
2021/04/20 00:44:53;;;;;;;19.73;12.70;;;5.90;99.90;;;;;;5034418;28;20034;-65
2021/04/20 00:47:19;;;;;;;22.58;12.75;;;6.00;99.90;;;;;;5034205;28;20180;-65
2021/04/20 00:49:46;;;;;;;11.88;7.95;;;6.00;99.90;;;;;;5034494;28;20029;-65
2021/04/20 00:52:12;;;;;;;10.43;6.40;;;5.70;99.90;;;;;;5034087;28;20037;-65
2021/04/20 00:54:37;;;;;;;17.45;10.95;;;5.60;99.90;;;;;;5034351;28;20021;-65
2021/04/20 00:57:04;;;;;;;19.23;11.88;;;5.70;99.90;;;;;;5033955;28;20036;-65
2021/04/20 00:59:29;;;;;;;16.10;10.43;;;5.80;99.90;;;;;;5033973;28;20037;-65
2021/04/20 01:01:55;;;;;;;15.82;10.63;;;5.90;99.90;;;;;;5032959;28;20537;-64
2021/04/20 01:04:21;;;;;;;17.60;10.90;;;5.80;99.90;;;;;;5033924;28;20862;-64
2021/04/20 01:06:50;;;;;;;18.55;10.77;;;5.80;99.90;;;;;;5033558;28;20030;-65
2021/04/20 01:09:20;;;;;;;18.48;10.60;;;5.70;99.90;;;;;;5032547;28;20033;-64
2021/04/20 01:11:46;;;;;;;16.38;10.15;;;5.70;99.90;;;;;;5032762;28;20037;-64
2021/04/20 01:14:13;;;;;;;18.25;9.65;;;5.70;99.90;;;;;;5032573;28;20030;-65
2021/04/20 01:16:39;;;;;;;16.33;10.23;;;5.70;99.90;;;;;;5032692;28;20061;-64
2021/04/20 01:19:08;;;;;;;16.63;10.45;;;5.60;99.90;;;;;;5033062;28;20501;-63
2021/04/20 01:21:38;;;;;;;16.85;9.65;;;5.50;99.90;;;;;;5033866;28;20065;-64
2021/04/20 01:24:09;;;;;;;16.77;10.68;;;5.40;99.90;;;;;;5032327;28;20040;-64
2021/04/20 01:26:45;;;;;;;17.58;11.05;;;5.40;99.90;;;;;;5033589;28;20037;-65
2021/04/20 01:29:11;;;;;;;21.50;12.02;;;5.40;99.90;;;;;;5033417;28;20033;-64
2021/04/20 01:31:42;;;;;;;24.00;13.80;;;5.30;99.90;;;;;;5033590;28;20025;-64
2021/04/20 01:34:09;;;;;;;28.92;17.23;;;5.30;99.90;;;;;;5032222;28;20090;-64
2021/04/20 01:36:36;;;;;;;30.40;14.77;;;5.50;99.90;;;;;;5033483;28;20063;-64
2021/04/20 01:39:07;;;;;;;27.63;14.77;;;5.40;99.90;;;;;;5032110;28;20076;-64
2021/04/20 01:41:35;;;;;;;25.70;14.45;;;5.40;99.90;;;;;;5033792;28;20584;-64
2021/04/20 01:44:02;;;;;;;37.65;19.83;;;5.30;99.90;;;;;;5033009;28;20041;-64
2021/04/20 01:46:28;;;;;;;36.42;19.83;;;5.40;99.90;;;;;;5015490;28;20053;-65
2021/04/20 01:48:55;;;;;;;28.38;15.82;;;5.50;99.90;;;;;;5033247;28;20049;-64
2021/04/20 01:51:22;;;;;;;17.88;11.70;;;5.30;99.90;;;;;;5033083;28;20033;-64
2021/04/20 01:53:50;;;;;;;17.08;9.95;;;5.00;99.90;;;;;;5033054;28;20037;-64
2021/04/20 01:56:16;;;;;;;17.60;8.30;;;4.50;99.90;;;;;;5032569;28;20029;-65
2021/04/20 01:58:44;;;;;;;14.32;8.68;;;4.50;99.90;;;;;;5015353;28;20040;-65
2021/04/20 02:01:20;;;;;;;13.05;7.35;;;4.50;99.90;;;;;;5015202;28;20064;-64
2021/04/20 02:03:47;;;;;;;17.27;10.15;;;4.30;99.90;;;;;;5032932;28;20044;-64
2021/04/20 02:06:15;;;;;;;20.00;10.80;;;4.50;99.90;;;;;;5014721;28;20025;-64
2021/04/20 02:08:42;;;;;;;17.02;10.10;;;4.60;99.90;;;;;;5032830;28;20083;-64
2021/04/20 02:11:14;;;;;;;19.00;10.50;;;4.60;99.90;;;;;;5032888;28;20029;-64
2021/04/20 02:13:40;;;;;;;21.15;12.20;;;4.70;99.90;;;;;;5032822;28;20124;-64
2021/04/20 02:16:08;;;;;;;21.35;12.30;;;4.70;99.90;;;;;;5031679;28;20079;-63
2021/04/20 02:18:40;;;;;;;27.48;14.30;;;4.80;99.90;;;;;;5032243;28;20433;-64
2021/04/20 02:21:07;;;;;;;28.27;15.88;;;4.70;99.90;;;;;;5031189;28;20099;-64
2021/04/20 02:23:35;;;;;;;30.08;15.98;;;4.80;99.90;;;;;;5031415;28;20038;-64
2021/04/20 02:26:10;;;;;;;29.73;16.88;;;4.80;99.90;;;;;;5031331;28;20029;-65
2021/04/20 02:28:37;;;;;;;31.15;15.98;;;4.90;99.90;;;;;;5032598;28;20026;-64
2021/04/20 02:31:07;;;;;;;23.63;13.68;;;4.80;99.90;;;;;;5030718;28;20033;-64
2021/04/20 02:33:35;;;;;;;21.30;11.40;;;4.50;99.90;;;;;;5031232;28;20032;-65
2021/04/20 02:36:02;;;;;;;21.00;10.23;;;4.40;99.90;;;;;;5032552;28;20041;-64
2021/04/20 02:38:29;;;;;;;15.80;9.32;;;4.40;99.90;;;;;;5032322;28;20033;-65
2021/04/20 02:40:56;;;;;;;16.17;8.07;;;4.30;99.90;;;;;;5030995;28;20099;-64
2021/04/20 02:43:24;;;;;;;13.02;8.55;;;4.20;99.90;;;;;;5032445;28;20033;-65
2021/04/20 02:45:53;;;;;;;11.88;7.15;;;4.10;99.90;;;;;;5032400;28;20113;-64
2021/04/20 02:48:20;;;;;;;13.02;7.63;;;3.90;99.90;;;;;;5030945;28;20034;-65
2021/04/20 02:50:46;;;;;;;11.88;6.75;;;4.00;99.90;;;;;;5031309;28;20060;-64
2021/04/20 02:53:16;;;;;;;12.77;8.10;;;4.00;99.90;;;;;;5032293;28;20029;-65
2021/04/20 02:55:44;;;;;;;18.05;10.23;;;4.00;99.90;;;;;;5032826;28;20125;-66
2021/04/20 02:58:17;;;;;;;17.80;10.25;;;4.00;99.90;;;;;;5032128;28;20037;-64
2021/04/20 03:00:46;;;;;;;15.20;9.00;;;4.10;99.90;;;;;;5032328;28;20025;-65
2021/04/20 03:03:15;;;;;;;15.13;9.07;;;4.20;99.90;;;;;;5032067;28;20028;-66
2021/04/20 03:05:41;;;;;;;13.52;7.93;;;4.30;99.90;;;;;;5030956;28;20037;-66
2021/04/20 03:08:08;;;;;;;13.65;7.80;;;4.30;99.90;;;;;;5031061;28;20030;-66
2021/04/20 03:10:38;;;;;;;11.18;6.55;;;4.10;99.90;;;;;;5032069;28;20029;-66
2021/04/20 03:13:05;;;;;;;14.40;7.38;;;4.00;99.90;;;;;;5032550;28;20026;-66
2021/04/20 03:15:33;;;;;;;11.43;7.00;;;4.00;99.90;;;;;;5030661;28;20033;-66
2021/04/20 03:17:59;;;;;;;16.67;8.73;;;4.10;99.90;;;;;;5030920;28;20056;-66
2021/04/20 03:20:25;;;;;;;14.07;8.23;;;4.10;99.90;;;;;;5030375;28;20073;-66
2021/04/20 03:22:51;;;;;;;14.40;8.07;;;4.20;99.90;;;;;;5032076;28;20430;-65
2021/04/20 03:25:25;;;;;;;13.55;7.88;;;4.20;99.90;;;;;;5030509;28;20475;-66
2021/04/20 03:27:56;;;;;;;12.52;6.90;;;4.20;99.90;;;;;;5032069;28;20061;-66
2021/04/20 03:30:32;;;;;;;9.43;6.18;;;4.10;99.90;;;;;;5031954;28;20104;-65
2021/04/20 03:33:19;;;;;;;9.65;6.32;;;4.10;99.90;;;;;;5031734;28;20120;-65
2021/04/20 03:36:08;;;;;;;11.05;6.70;;;3.90;99.90;;;;;;5031930;28;20501;-66
2021/04/20 03:38:58;;;;;;;9.05;6.07;;;3.90;99.90;;;;;;5030764;28;20377;-66
2021/04/20 03:41:33;;;;;;;13.25;6.28;;;3.90;99.90;;;;;;5013918;28;20128;-66
2021/04/20 03:44:01;;;;;;;10.85;6.30;;;3.80;99.90;;;;;;5035267;28;20052;-65
2021/04/20 03:46:38;;;;;;;12.38;6.28;;;3.90;99.90;;;;;;5000991;28;20037;-66
2021/04/20 03:49:40;;;;;;;9.35;5.82;;;3.90;99.90;;;;;;5010953;28;20025;-64
2021/04/20 03:52:16;;;;;;;10.82;5.97;;;3.80;99.90;;;;;;5029724;28;20032;-70
2021/04/20 03:54:45;;;;;;;12.13;6.72;;;3.70;99.90;;;;;;5018070;28;20533;-67
2021/04/20 03:57:14;;;;;;;13.18;7.07;;;3.70;99.90;;;;;;5034868;28;20175;-68
2021/04/20 03:59:44;;;;;;;15.73;8.60;;;3.80;99.90;;;;;;5027625;28;20037;-67
2021/04/20 04:02:12;;;;;;;14.20;7.50;;;3.90;99.90;;;;;;4963655;28;20085;-68
2021/04/20 04:04:41;;;;;;;12.73;7.80;;;3.90;99.90;;;;;;5009736;28;20481;-70
2021/04/20 04:07:08;;;;;;;11.60;6.68;;;3.90;99.90;;;;;;4998701;28;20034;-70
2021/04/20 04:09:36;;;;;;;8.75;5.57;;;3.90;99.90;;;;;;5014010;28;20037;-69
2021/04/20 04:12:06;;;;;;;10.35;5.88;;;3.60;99.90;;;;;;5014149;28;20034;-70
2021/04/20 04:14:35;;;;;;;8.13;5.10;;;3.60;99.90;;;;;;5013976;28;20036;-70
2021/04/20 04:17:12;;;;;;;11.40;6.85;;;3.60;99.90;;;;;;5014104;28;20034;-69
2021/04/20 04:19:46;;;;;;;13.93;8.30;;;3.60;99.90;;;;;;5018398;28;20046;-69
2021/04/20 04:22:23;;;;;;;13.38;7.45;;;3.70;99.90;;;;;;5033950;28;20029;-69
2021/04/20 04:24:56;;;;;;;13.05;6.82;;;3.70;99.90;;;;;;5033816;28;20595;-69
2021/04/20 04:27:27;;;;;;;9.18;5.30;;;3.70;99.90;;;;;;5033627;28;20599;-70
2021/04/20 04:29:56;;;;;;;10.45;6.93;;;3.70;99.90;;;;;;5034773;28;20069;-73
2021/04/20 04:32:23;;;;;;;11.85;7.13;;;3.80;99.90;;;;;;5016880;28;20029;-68
2021/04/20 04:34:50;;;;;;;18.05;9.93;;;3.80;99.90;;;;;;5016723;28;20052;-67
2021/04/20 04:37:17;;;;;;;25.70;12.38;;;4.00;99.90;;;;;;5034133;28;20121;-66
2021/04/20 04:39:44;;;;;;;23.55;12.23;;;4.10;99.90;;;;;;5034561;28;20033;-67
2021/04/20 04:42:12;;;;;;;22.80;13.77;;;4.10;99.90;;;;;;5033059;28;20072;-67
2021/04/20 04:44:38;;;;;;;26.45;13.07;;;4.30;99.90;;;;;;5034501;28;20029;-67
2021/04/20 04:47:08;;;;;;;23.98;11.95;;;4.30;99.90;;;;;;5033148;28;20475;-66
2021/04/20 04:49:36;;;;;;;18.23;9.90;;;4.30;99.90;;;;;;5033815;28;20037;-68
2021/04/20 04:52:03;;;;;;;18.60;10.40;;;4.30;99.90;;;;;;5033662;28;20483;-67
2021/04/20 04:54:30;;;;;;;14.75;8.75;;;4.30;99.90;;;;;;5004324;28;20036;-68
2021/04/20 04:56:58;;;;;;;17.13;9.90;;;4.30;99.90;;;;;;5016513;28;20029;-68
2021/04/20 04:59:26;;;;;;;19.83;9.45;;;4.40;99.90;;;;;;5016563;28;20029;-69
2021/04/20 05:01:53;;;;;;;18.25;10.13;;;4.00;99.90;;;;;;5016365;28;20424;-69
2021/04/20 05:04:24;;;;;;;18.00;9.88;;;3.90;99.90;;;;;;5016407;28;20368;-69
2021/04/20 05:06:51;;;;;;;22.65;11.70;;;4.00;99.90;;;;;;5015852;28;20037;-70
2021/04/20 05:09:24;;;;;;;18.63;10.15;;;4.10;99.90;;;;;;5016166;28;20398;-70
2021/04/20 05:11:52;;;;;;;21.40;9.77;;;4.20;99.90;;;;;;5033723;28;20512;-67
2021/04/20 05:14:21;;;;;;;14.38;8.27;;;4.30;99.90;;;;;;5033136;28;20458;-69
2021/04/20 05:16:52;;;;;;;15.05;8.80;;;4.40;99.90;;;;;;5033548;28;20033;-77
2021/04/20 05:19:31;;;;;;;15.63;8.48;;;4.30;99.90;;;;;;5015516;28;20032;-70
2021/04/20 05:21:58;;;;;;;14.43;8.48;;;4.10;99.90;;;;;;5032165;28;20368;-69
2021/04/20 05:24:25;;;;;;;19.83;9.93;;;4.10;99.90;;;;;;5033437;28;20037;-66
2021/04/20 05:26:51;;;;;;;41.03;17.38;;;4.10;99.90;;;;;;5033156;28;20041;-69
2021/04/20 05:29:17;;;;;;;56.90;25.65;;;4.20;99.90;;;;;;5015630;28;20762;-70
2021/04/20 05:31:45;;;;;;;15.20;9.25;;;4.20;99.90;;;;;;5032093;28;20060;-70
2021/04/20 05:34:10;;;;;;;18.33;9.52;;;4.10;99.90;;;;;;5032839;28;20030;-69
2021/04/20 05:36:37;;;;;;;19.15;9.48;;;4.10;99.90;;;;;;5015609;28;20493;-68
2021/04/20 05:39:10;;;;;;;20.10;10.07;;;4.10;99.90;;;;;;5015517;28;20029;-68
2021/04/20 05:41:39;;;;;;;18.65;9.60;;;4.10;99.90;;;;;;5026628;28;20041;-68
2021/04/20 05:44:08;;;;;;;16.45;9.77;;;4.20;99.90;;;;;;5021992;28;20107;-68
2021/04/20 05:46:47;;;;;;;16.70;10.00;;;4.30;99.90;;;;;;5029245;28;20463;-69
2021/04/20 05:49:15;;;;;;;30.80;16.38;;;4.30;99.90;;;;;;5031761;28;20152;-69
2021/04/20 05:51:42;;;;;;;180.90;97.80;;;4.40;99.90;;;;;;5032294;28;20149;-68
2021/04/20 05:54:09;;;;;;;25.45;14.85;;;4.60;99.90;;;;;;5032082;28;20398;-68
2021/04/20 05:56:35;;;;;;;23.17;11.75;;;4.70;99.90;;;;;;5023561;28;20052;-68
2021/04/20 05:59:04;;;;;;;23.88;11.15;;;4.90;99.90;;;;;;5012729;28;20125;-69
2021/04/20 06:01:34;;;;;;;26.30;13.70;;;5.10;99.90;;;;;;5025855;28;20033;-70
2021/04/20 06:03:59;;;;;;;21.63;10.95;;;5.10;99.90;;;;;;5029497;28;20041;-69
2021/04/20 06:06:26;;;;;;;19.00;10.77;;;5.30;99.90;;;;;;5015001;28;20034;-70
2021/04/20 06:08:54;;;;;;;23.40;12.98;;;5.40;99.90;;;;;;5032179;28;20022;-69
2021/04/20 06:11:22;;;;;;;25.65;13.10;;;5.50;99.90;;;;;;5026351;28;20041;-69
2021/04/20 06:13:52;;;;;;;25.77;14.20;;;5.60;99.90;;;;;;5032645;28;20052;-69
2021/04/20 06:16:18;;;;;;;27.88;14.63;;;5.70;99.90;;;;;;5028336;28;20041;-69
2021/04/20 06:18:44;;;;;;;30.90;16.33;;;5.80;99.90;;;;;;5014545;28;20032;-68
2021/04/20 06:21:11;;;;;;;39.00;19.52;;;5.90;99.90;;;;;;5031102;28;20057;-69
2021/04/20 06:23:37;;;;;;;53.72;23.52;;;6.00;99.90;;;;;;5000835;28;20375;-69
2021/04/20 06:26:06;;;;;;;52.78;25.05;;;6.10;99.90;;;;;;5009029;28;20391;-69
2021/04/20 06:28:33;;;;;;;54.47;25.30;;;6.20;99.90;;;;;;5011140;28;20034;-69
2021/04/20 06:31:02;;;;;;;57.80;25.63;;;6.30;99.90;;;;;;5011472;28;20038;-69
2021/04/20 06:33:32;;;;;;;51.22;24.20;;;6.30;99.90;;;;;;5012410;28;20065;-69
2021/04/20 06:36:02;;;;;;;54.45;24.67;;;6.50;99.90;;;;;;5011302;28;20430;-68
2021/04/20 06:38:29;;;;;;;51.05;23.75;;;6.70;99.90;;;;;;5013536;28;20034;-68
2021/04/20 06:40:57;;;;;;;45.78;22.30;;;6.70;99.90;;;;;;5014295;28;20026;-69
2021/04/20 06:43:30;;;;;;;39.78;20.80;;;6.90;99.90;;;;;;5014366;28;20025;-68
2021/04/20 06:46:01;;;;;;;38.92;20.98;;;6.90;99.90;;;;;;5014819;28;20026;-69
2021/04/20 06:48:45;;;;;;;42.08;21.92;;;7.00;99.90;;;;;;5031906;28;20076;-69
2021/04/20 06:51:24;;;;;;;40.33;21.95;;;7.20;99.90;;;;;;5026095;28;20026;-69
2021/04/20 06:53:57;;;;;;;41.53;22.25;;;7.40;99.90;;;;;;5031080;28;20065;-69
2021/04/20 06:56:48;;;;;;;36.90;21.27;;;7.50;99.90;;;;;;5031033;28;20125;-69
2021/04/20 07:00:00;;;;;;;39.85;20.50;;;7.50;99.90;;;;;;5031083;28;20087;-69
2021/04/20 07:03:00;;;;;;;45.08;21.58;;;7.60;99.90;;;;;;5031519;28;20037;-69
2021/04/20 07:05:40;;;;;;;38.38;20.20;;;7.80;99.90;;;;;;5031862;28;20029;-69
2021/04/20 07:08:36;;;;;;;39.83;19.88;;;7.90;99.90;;;;;;5032046;28;20372;-69
2021/04/20 07:11:07;;;;;;;38.03;20.23;;;8.00;99.90;;;;;;5031029;28;20394;-69
2021/04/20 07:13:35;;;;;;;41.28;22.20;;;8.10;99.90;;;;;;5030312;28;20067;-69
2021/04/20 07:16:27;;;;;;;37.58;21.00;;;8.00;99.90;;;;;;5047539;28;20091;-69
2021/04/20 07:19:37;;;;;;;37.10;20.75;;;8.20;99.90;;;;;;5049771;28;20029;-69
2021/04/20 07:22:40;;;;;;;36.72;21.58;;;8.20;99.90;;;;;;5018853;28;20055;-69
2021/04/20 07:25:18;;;;;;;43.85;21.63;;;8.30;99.90;;;;;;5034829;28;20083;-68
2021/04/20 07:27:52;;;;;;;38.85;20.75;;;8.40;99.90;;;;;;5035376;28;20064;-69
2021/04/20 07:30:48;;;;;;;45.10;24.02;;;8.70;99.90;;;;;;5035742;28;20041;-69
2021/04/20 07:34:40;;;;;;;43.45;23.23;;;8.70;99.90;;;;;;5020354;28;20030;-68
2021/04/20 07:37:48;;;;;;;41.60;22.85;;;8.80;99.90;;;;;;4921730;29;20063;-68
2021/04/20 07:40:40;;;;;;;42.85;22.92;;;8.90;99.90;;;;;;4999378;28;20057;-68
2021/04/20 07:43:32;;;;;;;55.33;24.67;;;8.90;99.90;;;;;;5023674;28;20072;-69
2021/04/20 07:46:24;;;;;;;48.70;25.80;;;9.20;99.90;;;;;;5035435;28;20034;-69
2021/04/20 07:48:49;;;;;;;46.97;24.42;;;9.30;99.90;;;;;;5034216;28;20033;-69
2021/04/20 07:51:46;;;;;;;53.80;26.08;;;9.40;99.90;;;;;;5035206;28;20029;-68
2021/04/20 07:54:37;;;;;;;50.75;24.58;;;9.40;99.90;;;;;;5026140;28;20025;-69
2021/04/20 07:57:27;;;;;;;52.55;25.00;;;9.50;99.90;;;;;;5035107;28;20041;-69
2021/04/20 07:59:53;;;;;;;50.80;26.67;;;9.70;99.90;;;;;;5033924;28;20022;-69
2021/04/20 08:03:03;;;;;;;45.35;25.73;;;9.70;99.90;;;;;;5035006;28;20356;-69
2021/04/20 08:05:46;;;;;;;53.30;24.48;;;9.80;99.90;;;;;;4988423;28;20042;-69
2021/04/20 08:08:30;;;;;;;52.85;25.80;;;9.90;99.90;;;;;;5033800;28;20064;-69
2021/04/20 08:11:17;;;;;;;57.17;27.70;;;9.90;99.90;;;;;;5035052;28;20037;-69
2021/04/20 08:13:58;;;;;;;53.95;26.38;;;9.90;99.90;;;;;;5033707;28;20030;-70
2021/04/20 08:16:38;;;;;;;53.58;24.35;;;10.00;99.90;;;;;;5035010;28;20095;-69
2021/04/20 08:19:26;;;;;;;48.72;24.80;;;10.20;99.90;;;;;;5018310;28;20033;-69
2021/04/20 08:21:53;;;;;;;49.53;26.63;;;10.30;99.90;;;;;;4993188;28;20049;-69
2021/04/20 08:24:56;;;;;;;48.45;24.67;;;10.40;99.90;;;;;;5033579;28;20072;-69
2021/04/20 08:27:45;;;;;;;50.75;26.77;;;10.50;99.90;;;;;;5017341;28;20463;-69
2021/04/20 08:30:41;;;;;;;54.60;26.52;;;10.50;99.90;;;;;;5030056;28;20367;-69
2021/04/20 08:33:17;;;;;;;51.47;24.25;;;10.70;99.90;;;;;;5034069;28;20090;-69
2021/04/20 08:35:49;;;;;;;49.13;26.00;;;10.70;99.90;;;;;;5033257;28;20474;-69
2021/04/20 08:38:27;;;;;;;;;;;10.90;99.90;;;;;;5034903;28;20026;-69
2021/04/20 08:41:10;;;;;;;49.50;25.35;;;11.00;99.90;;;;;;5017613;28;19917;-69
2021/04/20 08:44:30;;;;;;;45.72;24.40;;;11.20;99.90;;;;;;5033187;28;20025;-69
2021/04/20 08:47:07;;;;;;;50.58;25.02;;;11.40;99.90;;;;;;5033894;28;20376;-69
2021/04/20 08:50:00;;;;;;;54.00;24.35;;;11.50;99.90;;;;;;5028726;28;20462;-69
2021/04/20 08:52:41;;;;;;;50.78;26.95;;;11.50;99.90;;;;;;5028099;28;20096;-69
2021/04/20 08:55:56;;;;;;;46.75;26.02;;;11.50;99.90;;;;;;5033895;28;20503;-69
2021/04/20 08:59:06;;;;;;;55.00;27.90;;;11.80;99.90;;;;;;5034010;28;20076;-69
2021/04/20 09:02:09;;;;;;;55.92;28.73;;;12.00;99.90;;;;;;5034064;28;20029;-68
2021/04/20 09:05:02;;;;;;;54.85;28.77;;;12.10;99.90;;;;;;5038998;28;20568;-69
2021/04/20 09:07:56;;;;;;;54.50;27.10;;;12.20;99.90;;;;;;5053797;28;20402;-70
2021/04/20 09:10:50;;;;;;;48.45;26.88;;;12.40;99.90;;;;;;5035971;28;20033;-69
2021/04/20 09:13:21;;;;;;;56.75;27.67;;;12.60;99.90;;;;;;5052682;28;20056;-69
2021/04/20 09:16:04;;;;;;;61.50;29.50;;;12.50;99.90;;;;;;5053528;28;20091;-69
2021/04/20 09:18:38;;;;;;;55.53;29.70;;;12.60;99.90;;;;;;5052503;28;20102;-69
2021/04/20 09:21:32;;;;;;;57.08;29.20;;;12.50;99.90;;;;;;5035977;28;20402;-69
2021/04/20 09:24:16;;;;;;;53.45;29.38;;;12.90;99.90;;;;;;5033568;28;20036;-70
2021/04/20 09:27:16;;;;;;;55.58;27.73;;;13.00;99.90;;;;;;5032026;28;20034;-70
2021/04/20 09:29:46;;;;;;;52.13;26.98;;;13.00;99.90;;;;;;5032278;28;20029;-69
2021/04/20 09:32:22;;;;;;;51.30;27.65;;;13.10;99.90;;;;;;5032378;28;20034;-70
2021/04/20 09:34:50;;;;;;;54.60;27.83;;;13.20;99.90;;;;;;5033254;28;20172;-69
2021/04/20 09:37:19;;;;;;;56.03;27.65;;;13.00;99.90;;;;;;5032993;28;20026;-69
2021/04/20 09:39:50;;;;;;;51.95;27.35;;;13.20;99.90;;;;;;5031587;28;20040;-68
2021/04/20 09:42:17;;;;;;;;;;;13.30;99.90;;;;;;5033796;28;20434;-68
2021/04/20 09:45:14;;;;;;;50.95;26.83;;;13.70;99.90;;;;;;5015663;28;19920;-67
2021/04/20 09:48:38;;;;;;;47.38;25.75;;;13.90;99.90;;;;;;5031425;28;20071;-67
2021/04/20 09:51:18;;;;;;;42.25;21.30;;;14.10;99.90;;;;;;5028300;28;20052;-68
2021/04/20 09:54:15;;;;;;;41.30;23.88;;;14.10;99.90;;;;;;5014625;28;20038;-67
2021/04/20 09:56:44;;;;;;;42.28;23.65;;;14.00;99.90;;;;;;5004013;28;20041;-67
2021/04/20 09:59:26;;;;;;;41.35;21.10;;;14.20;99.90;;;;;;5032880;28;20081;-67
2021/04/20 10:02:04;;;;;;;32.83;18.75;;;14.70;99.90;;;;;;5031359;28;20043;-68
2021/04/20 10:04:41;;;;;;;37.20;19.48;;;15.00;99.90;;;;;;5032671;28;20033;-67
2021/04/20 10:07:45;;;;;;;35.00;18.70;;;15.20;99.90;;;;;;5032344;28;20394;-68
2021/04/20 10:10:28;;;;;;;32.53;18.27;;;15.40;99.90;;;;;;5006683;28;20045;-67
2021/04/20 10:13:18;;;;;;;31.45;17.35;;;15.30;99.90;;;;;;5011422;28;20038;-68
2021/04/20 10:16:25;;;;;;;31.63;18.45;;;15.30;99.90;;;;;;5012676;28;20509;-68
2021/04/20 10:19:12;;;;;;;38.50;18.30;;;15.20;99.90;;;;;;4997493;28;20092;-71
2021/04/20 10:22:21;;;;;;;35.13;18.25;;;15.50;99.90;;;;;;5012437;28;20504;-70
2021/04/20 10:25:14;;;;;;;27.98;16.58;;;16.00;99.70;;;;;;5012495;28;20083;-69
2021/04/20 10:27:46;;;;;;;28.13;17.05;;;15.90;99.10;;;;;;5012526;28;20030;-68
2021/04/20 10:30:25;;;;;;;33.58;17.48;;;15.50;99.20;;;;;;5027425;28;20033;-69
2021/04/20 10:32:53;;;;;;;28.98;16.63;;;15.70;99.10;;;;;;5041999;28;20029;-70
2021/04/20 10:35:36;;;;;;;32.67;17.30;;;15.80;98.60;;;;;;5014815;28;20430;-68
2021/04/20 10:38:15;;;;;;;30.75;16.55;;;15.60;98.20;;;;;;5031257;28;20071;-68
2021/04/20 10:40:44;;;;;;;31.83;16.15;;;15.90;97.90;;;;;;5001560;28;20096;-69
2021/04/20 10:43:16;;;;;;;29.38;17.38;;;15.90;97.90;;;;;;5019928;28;20052;-72
2021/04/20 10:45:43;;;;;;;28.27;15.68;;;15.90;97.90;;;;;;5024532;28;20021;-71
2021/04/20 10:48:14;;;;;;;28.17;16.05;;;16.20;96.40;;;;;;5045708;28;20037;-69
2021/04/20 10:50:41;;;;;;;30.90;17.35;;;15.60;97.90;;;;;;5020849;28;20128;-69
2021/04/20 10:53:14;;;;;;;34.30;17.77;;;15.40;99.70;;;;;;5042389;28;20087;-70
2021/04/20 10:56:00;;;;;;;34.50;17.83;;;16.00;98.20;;;;;;5050809;28;20029;-73
2021/04/20 10:58:28;;;;;;;30.08;17.75;;;15.90;98.50;;;;;;5051010;28;20500;-71
2021/04/20 11:00:54;;;;;;;37.08;19.52;;;16.20;97.80;;;;;;5050619;28;20060;-71
2021/04/20 11:03:28;;;;;;;31.35;19.13;;;16.40;98.60;;;;;;5050595;28;20078;-71
2021/04/20 11:05:55;;;;;;;27.67;16.25;;;16.80;98.00;;;;;;5033495;28;20470;-70
2021/04/20 11:08:46;;;;;;;32.58;18.15;;;16.50;97.20;;;;;;5030439;28;20037;-71
2021/04/20 11:11:23;;;;;;;30.85;17.48;;;16.60;96.50;;;;;;5014043;28;20044;-71
2021/04/20 11:13:50;;;;;;;31.67;17.52;;;16.50;96.20;;;;;;5013049;28;20577;-72
2021/04/20 11:16:42;;;;;;;31.77;17.98;;;16.60;98.30;;;;;;5031869;28;20036;-71
2021/04/20 11:19:13;;;;;;;26.50;16.63;;;16.50;96.40;;;;;;5015822;28;20033;-70
2021/04/20 11:21:44;;;;;;;29.65;16.08;;;15.90;98.30;;;;;;5027706;28;20050;-71
2021/04/20 11:24:20;;;;;;;29.58;16.20;;;16.40;96.40;;;;;;5030845;28;20034;-71
2021/04/20 11:26:56;;;;;;;29.40;17.52;;;16.50;96.80;;;;;;5031056;28;20044;-72
2021/04/20 11:29:42;;;;;;;30.83;16.90;;;16.70;97.00;;;;;;5030710;28;20033;-72
2021/04/20 11:32:11;;;;;;;32.50;17.63;;;16.50;95.80;;;;;;5030550;28;20033;-71
2021/04/20 11:34:40;;;;;;;28.15;16.00;;;17.50;94.70;;;;;;5022837;28;20084;-72
2021/04/20 11:37:10;;;;;;;29.92;15.95;;;18.20;92.10;;;;;;5025967;28;20034;-72
2021/04/20 11:39:48;;;;;;;28.37;15.70;;;18.20;91.90;;;;;;5027049;28;20080;-72
2021/04/20 11:42:28;;;;;;;25.65;15.05;;;17.70;91.90;;;;;;5026578;28;20041;-72
2021/04/20 11:44:58;;;;;;;26.73;16.80;;;17.70;91.90;;;;;;5011837;28;20087;-72
2021/04/20 11:47:26;;;;;;;24.55;15.30;;;17.40;92.60;;;;;;5026457;28;20045;-72
2021/04/20 11:50:04;;;;;;;27.25;15.23;;;17.60;92.40;;;;;;5011690;28;20033;-72
2021/04/20 11:52:32;;;;;;;28.83;16.08;;;18.10;92.40;;;;;;4994905;28;20079;-74
2021/04/20 11:55:10;;;;;;;22.02;13.13;;;18.50;91.30;;;;;;5011868;28;20574;-73
2021/04/20 11:57:38;;;;;;;23.98;13.88;;;17.80;91.50;;;;;;5011605;28;20502;-72
2021/04/20 12:00:06;;;;;;;24.20;14.10;;;18.30;91.50;;;;;;5011611;28;20079;-71
2021/04/20 12:02:33;;;;;;;22.90;13.15;;;18.90;91.10;;;;;;4995382;28;20475;-72
2021/04/20 12:05:02;;;;;;;20.88;12.80;;;19.20;86.30;;;;;;4997796;28;20030;-71
2021/04/20 12:07:32;;;;;;;23.05;13.48;;;19.50;86.60;;;;;;4981717;28;20076;-70
2021/04/20 12:09:59;;;;;;;24.15;13.57;;;19.80;83.30;;;;;;4997975;28;20046;-72
2021/04/20 12:12:34;;;;;;;20.70;12.18;;;20.10;82.20;;;;;;4997723;28;20057;-72
2021/04/20 12:15:05;;;;;;;21.90;12.50;;;19.90;79.50;;;;;;4997735;28;20030;-72
2021/04/20 12:17:38;;;;;;;21.13;13.63;;;20.60;78.50;;;;;;5014934;28;20025;-70
2021/04/20 12:20:11;;;;;;;25.63;14.93;;;19.20;80.20;;;;;;5020347;28;20057;-72
2021/04/20 12:22:37;;;;;;;21.17;13.15;;;19.00;80.10;;;;;;5033479;28;20080;-72
2021/04/20 12:25:07;;;;;;;24.30;14.10;;;19.70;81.20;;;;;;5033046;28;20117;-72
2021/04/20 12:27:33;;;;;;;20.90;13.45;;;19.90;77.70;;;;;;5034409;28;20039;-71
2021/04/20 12:30:02;;;;;;;23.73;14.10;;;19.70;77.00;;;;;;5033111;28;20026;-71
2021/04/20 12:32:32;;;;;;;21.92;13.63;;;19.30;78.00;;;;;;5033321;28;20033;-71
2021/04/20 12:35:00;;;;;;;25.10;14.55;;;19.40;78.00;;;;;;5033203;28;20429;-71
2021/04/20 12:37:30;;;;;;;24.02;13.20;;;20.10;78.50;;;;;;5034379;28;20037;-71
2021/04/20 12:40:10;;;;;;;25.13;13.90;;;19.50;79.10;;;;;;5034357;28;20076;-70
2021/04/20 12:42:46;;;;;;;19.88;12.00;;;20.70;74.50;;;;;;5034221;28;20040;-71
2021/04/20 12:45:20;;;;;;;19.88;12.50;;;20.40;73.30;;;;;;5033162;28;20076;-72
2021/04/20 12:47:48;;;;;;;15.90;8.32;;;20.20;74.20;;;;;;5034235;28;20065;-71
2021/04/20 12:50:19;;;;;;;12.55;8.00;;;19.70;71.90;;;;;;5032989;28;20033;-72
2021/04/20 12:52:45;;;;;;;;;;;20.50;70.00;;;;;;5033159;28;20498;-72
2021/04/20 12:55:23;;;;;;;17.25;9.32;;;21.50;67.00;;;;;;5016355;28;19944;-72
2021/04/20 12:57:53;;;;;;;14.77;8.93;;;21.70;64.70;;;;;;5032659;28;20025;-71
2021/04/20 13:00:28;;;;;;;11.70;7.38;;;21.50;64.00;;;;;;5032592;28;20085;-72
2021/04/20 13:02:58;;;;;;;10.05;6.82;;;20.60;65.10;;;;;;5033765;28;20065;-71
2021/04/20 13:05:38;;;;;;;10.38;6.97;;;20.20;65.90;;;;;;5032656;28;20030;-71
2021/04/20 13:08:11;;;;;;;13.82;7.82;;;19.80;67.80;;;;;;5032018;28;20033;-71
2021/04/20 13:10:39;;;;;;;12.32;7.85;;;19.40;71.50;;;;;;5015704;28;20033;-70
2021/04/20 13:13:09;;;;;;;13.65;8.38;;;20.30;68.40;;;;;;5032026;28;20108;-72
2021/04/20 13:15:38;;;;;;;13.48;8.35;;;19.80;70.00;;;;;;5031985;28;20482;-73